Decoursey, Kentucky
Current Conditions -  °F | °C
As of 5:14 PM on Saturday 20 Dec 2014 (Local Time) from KI69 Reporting Station
Overcast Overcast  
Wind Chill:   Ceiling: 1600
Heat Index:   Visibility: 10mi
Dew Point: -2°   Wind: 0mph
Humidity: 87%   Direction: NA
Pressure: 30.27"   Gusts: NA
Location:  39.0659°N, 84.5309°W
Report Text: KI69 202214Z AUTO 00000KT 10SM OVC016 00/M02 A3027 RMK AO1
Loading
Personal Weather Stations






























Interactive Weather Map New forecast layout! Learn more

10-Day Weather Forecast

Advertisements
Track Severe Weather on mobile